createdAt,value
2019-05-25T07:11:57.636Z,45.62
2019-05-25T07:12:57.570Z,46.11
2019-05-25T07:14:50.773Z,45.62
2019-05-25T07:15:50.731Z,46.49
2019-05-25T07:17:43.527Z,46.40
2019-05-25T07:18:43.464Z,46.49
2019-05-25T07:20:36.265Z,46.69
2019-05-25T07:21:37.582Z,46.78
2019-05-25T07:23:29.809Z,46.97
2019-05-25T07:24:29.435Z,46.88
2019-05-25T07:26:23.031Z,46.78
2019-05-25T07:27:21.678Z,46.71
2019-05-25T07:29:17.322Z,47.07
2019-05-25T07:30:15.405Z,46.78
2019-05-25T07:32:08.219Z,46.49
2019-05-25T07:33:08.153Z,46.81
2019-05-25T07:35:00.942Z,47.09
2019-05-25T07:36:00.887Z,46.23
2019-05-25T07:37:54.710Z,47.19
2019-05-25T07:38:54.635Z,46.71
2019-05-25T07:40:47.883Z,46.71
2019-05-25T07:41:47.851Z,47.19
2019-05-25T07:43:40.668Z,47.09
2019-05-25T07:44:40.593Z,47.00
2019-05-25T07:46:33.432Z,46.81
2019-05-25T07:47:33.352Z,46.81
2019-05-25T07:49:26.150Z,46.71
2019-05-25T07:50:26.101Z,46.61
2019-05-25T07:52:18.918Z,46.42
2019-05-25T07:53:18.849Z,46.42
2019-05-25T07:55:11.655Z,46.71
2019-05-25T07:56:11.598Z,46.61
2019-05-25T07:58:16.684Z,46.44
2019-05-25T07:59:04.394Z,46.64
2019-05-25T08:00:57.344Z,46.44
2019-05-25T08:01:57.300Z,45.96
2019-05-25T08:03:50.318Z,46.15
2019-05-25T08:04:50.054Z,45.86
2019-05-25T08:06:43.291Z,45.86
2019-05-25T08:07:43.237Z,45.45
2019-05-25T08:09:36.053Z,45.86
2019-05-25T08:10:35.978Z,45.67
2019-05-25T08:12:28.795Z,45.48
2019-05-25T08:13:28.752Z,45.38
2019-05-25T08:15:21.519Z,45.57
2019-05-25T08:16:21.485Z,45.48
2019-05-25T08:18:14.294Z,45.48
2019-05-25T08:19:14.227Z,45.38
2019-05-25T08:21:07.306Z,45.67
2019-05-25T08:22:07.257Z,45.96
2019-05-25T08:24:00.083Z,45.86
2019-05-25T08:25:00.006Z,45.67
2019-05-25T08:26:52.806Z,45.98
2019-05-25T08:27:52.754Z,45.50
2019-05-25T08:29:46.032Z,45.00
2019-05-25T08:30:45.972Z,45.28
2019-05-25T08:32:38.758Z,45.01
2019-05-25T08:33:38.706Z,45.00
2019-05-25T08:35:31.525Z,45.21
2019-05-25T08:36:31.503Z,45.11
2019-05-25T08:38:24.273Z,45.38
2019-05-25T08:39:24.198Z,45.28
2019-05-25T08:41:18.290Z,45.18
2019-05-25T08:42:18.224Z,45.28
2019-05-25T08:44:11.050Z,45.28
2019-05-25T08:45:10.983Z,45.38
2019-05-25T08:47:03.779Z,45.18
2019-05-25T08:48:03.725Z,45.18
2019-05-25T08:49:56.559Z,45.00
2019-05-25T08:50:59.393Z,45.00
2019-05-25T08:52:49.327Z,45.38
2019-05-25T08:53:49.260Z,45.40
2019-05-25T08:55:42.073Z,45.28
2019-05-25T08:56:42.013Z,45.31
2019-05-25T08:58:47.475Z,45.09
2019-05-25T08:59:34.782Z,45.38
2019-05-25T09:01:27.590Z,45.00
2019-05-25T09:02:27.526Z,45.11
2019-05-25T09:04:20.346Z,45.40
2019-05-25T09:05:20.241Z,44.90
2019-05-25T09:07:13.061Z,45.21
2019-05-25T09:08:13.067Z,45.21
2019-05-25T09:09:12.966Z,45.28
2019-05-25T09:10:13.093Z,45.31
2019-05-25T09:11:12.880Z,45.21
2019-05-25T09:12:12.831Z,45.11
2019-05-25T09:13:12.810Z,45.01
2019-05-25T09:14:12.759Z,45.01
2019-05-25T09:15:12.708Z,44.92
2019-05-25T09:16:12.656Z,44.92
2019-05-25T09:17:12.612Z,45.11
2019-05-25T09:18:12.564Z,45.31
2019-05-25T09:19:12.520Z,45.11
2019-05-25T09:20:12.477Z,45.01
2019-05-25T09:21:12.448Z,45.40
2019-05-25T09:22:12.397Z,45.31
2019-05-25T09:23:12.351Z,44.92
2019-05-25T09:24:12.305Z,45.31
2019-05-25T09:25:12.266Z,45.01
2019-05-25T09:26:13.427Z,45.11
2019-05-25T09:27:12.168Z,45.21
2019-05-25T09:28:12.123Z,44.92
2019-05-25T09:29:12.077Z,45.01
2019-05-25T09:30:12.043Z,45.11
2019-05-25T09:31:11.993Z,45.11
2019-05-25T09:32:11.958Z,45.40
2019-05-25T09:33:11.902Z,45.50
2019-05-25T09:34:11.859Z,45.21
2019-05-25T09:35:11.811Z,44.92
2019-05-25T09:36:11.765Z,44.92
2019-05-25T09:37:11.741Z,44.92
2019-05-25T09:38:11.683Z,44.92
2019-05-25T09:39:11.789Z,44.92
2019-05-25T09:40:11.588Z,44.92
2019-05-25T09:41:11.549Z,44.92
2019-05-25T09:42:11.503Z,45.01
2019-05-25T09:43:11.459Z,44.73
2019-05-25T09:44:11.416Z,45.01
2019-05-25T09:45:14.090Z,45.01
2019-05-25T09:46:11.548Z,45.01
2019-05-25T09:47:11.289Z,44.92
2019-05-25T09:48:11.260Z,45.01
2019-05-25T09:49:11.217Z,45.11
2019-05-25T09:50:11.152Z,45.01
2019-05-25T09:51:15.514Z,44.75
2019-05-25T09:52:11.068Z,44.43
2019-05-25T09:53:11.067Z,44.63
2019-05-25T09:54:10.969Z,44.63
2019-05-25T09:55:10.934Z,44.53
2019-05-25T09:56:10.887Z,44.43
2019-05-25T09:57:10.891Z,44.46
2019-05-25T09:58:10.834Z,44.73
2019-05-25T09:59:19.630Z,44.84
2019-05-25T10:00:10.724Z,45.14
2019-05-25T10:01:10.674Z,44.75
2019-05-25T10:02:10.634Z,44.94
2019-05-25T10:03:10.583Z,45.14
2019-05-25T10:04:10.558Z,44.65
2019-05-25T10:05:10.505Z,44.75
2019-05-25T10:06:13.090Z,44.36
2019-05-25T10:07:10.434Z,44.94
2019-05-25T10:08:10.353Z,44.84
2019-05-25T10:09:10.312Z,45.04
2019-05-25T10:10:10.276Z,44.75
2019-05-25T10:11:10.231Z,44.84
2019-05-25T10:12:10.187Z,44.46
2019-05-25T10:13:10.149Z,44.36
2019-05-25T10:14:10.094Z,44.46
2019-05-25T10:15:10.103Z,44.56
2019-05-25T10:16:09.997Z,44.46
2019-05-25T10:17:09.967Z,43.98
2019-05-25T10:18:10.015Z,44.46
2019-05-25T10:19:09.875Z,44.46
2019-05-25T10:20:09.826Z,44.36
2019-05-25T10:21:09.815Z,44.46
2019-05-25T10:22:09.736Z,44.46
2019-05-25T10:23:09.699Z,44.26
2019-05-25T10:24:09.647Z,44.26
2019-05-25T10:25:09.621Z,44.26
2019-05-25T10:26:09.566Z,44.26
2019-05-25T10:27:09.525Z,43.78
2019-05-25T10:28:09.486Z,43.98
2019-05-25T10:29:09.428Z,43.98
2019-05-25T10:30:09.409Z,43.78
2019-05-25T10:31:09.343Z,44.26
2019-05-25T10:32:09.298Z,44.36
2019-05-25T10:33:09.265Z,43.98
2019-05-25T10:34:09.206Z,43.30
2019-05-25T10:35:09.161Z,43.59
2019-05-25T10:36:09.121Z,43.98
2019-05-25T10:37:09.116Z,43.98
2019-05-25T10:38:09.034Z,43.98
2019-05-25T10:39:08.984Z,43.98
2019-05-25T10:40:08.950Z,44.17
2019-05-25T10:41:08.907Z,44.07
2019-05-25T10:42:08.857Z,44.26
2019-05-25T10:43:08.804Z,44.07
2019-05-25T10:44:08.768Z,44.17
2019-05-25T10:45:08.747Z,43.68
2019-05-25T10:46:08.759Z,43.40
2019-05-25T10:47:08.646Z,43.40
2019-05-25T10:48:08.584Z,43.59
2019-05-25T10:49:11.467Z,43.78
2019-05-25T10:50:08.518Z,44.17
2019-05-25T10:51:08.470Z,43.68
2019-05-25T10:52:08.405Z,44.07
2019-05-25T10:53:08.370Z,44.17
2019-05-25T10:54:08.321Z,44.17
2019-05-25T10:55:08.281Z,44.07
2019-05-25T10:56:08.235Z,43.30
2019-05-25T10:57:08.201Z,43.68
2019-05-25T10:58:08.273Z,43.78
2019-05-25T10:59:08.099Z,43.68
2019-05-25T11:00:08.057Z,43.59
2019-05-25T11:01:08.016Z,43.68
2019-05-25T11:02:07.978Z,43.88
2019-05-25T11:03:07.954Z,43.61
2019-05-25T11:04:07.883Z,43.59
2019-05-25T11:05:07.841Z,43.30
2019-05-25T11:06:08.039Z,43.78
2019-05-25T11:07:07.752Z,43.98
2019-05-25T11:08:08.582Z,44.07
2019-05-25T11:09:07.673Z,44.19
2019-05-25T11:10:07.619Z,43.80
2019-05-25T11:11:07.574Z,43.80
2019-05-25T11:12:07.533Z,43.71
2019-05-25T11:13:07.491Z,43.61
2019-05-25T11:14:07.455Z,43.30
2019-05-25T11:15:07.404Z,43.80
2019-05-25T11:16:07.359Z,44.17
2019-05-25T11:17:07.330Z,44.09
2019-05-25T11:18:07.403Z,44.09
2019-05-25T11:19:07.221Z,43.99
2019-05-25T11:20:07.192Z,44.07
2019-05-25T11:21:07.316Z,44.29
2019-05-25T11:22:07.097Z,44.09
2019-05-25T11:23:07.042Z,44.07
2019-05-25T11:24:06.996Z,43.78
2019-05-25T11:25:06.959Z,43.80
2019-05-25T11:26:06.908Z,43.40
2019-05-25T11:27:06.868Z,43.23
2019-05-25T11:28:08.367Z,43.13
2019-05-25T11:29:06.776Z,43.61
2019-05-25T11:30:09.586Z,43.99
2019-05-25T11:31:06.693Z,44.09
2019-05-25T11:32:08.625Z,43.41
2019-05-25T11:33:06.805Z,43.90
2019-05-25T11:34:06.560Z,43.90
2019-05-25T11:35:06.547Z,43.71
2019-05-25T11:36:06.610Z,43.71
2019-05-25T11:37:06.438Z,43.61
2019-05-25T11:38:06.390Z,43.71
2019-05-25T11:39:06.341Z,43.71
2019-05-25T11:40:06.295Z,43.80
2019-05-25T11:41:06.254Z,43.32
2019-05-25T11:42:06.248Z,43.61
2019-05-25T11:43:06.187Z,43.61
2019-05-25T11:44:06.123Z,43.61
2019-05-25T11:45:06.083Z,43.80
2019-05-25T11:46:06.044Z,43.71
2019-05-25T11:47:05.996Z,43.61
2019-05-25T11:48:05.996Z,43.90
2019-05-25T11:49:21.420Z,43.80
2019-05-25T11:50:06.141Z,43.80
2019-05-25T11:51:05.938Z,43.80
2019-05-25T11:52:05.876Z,44.09
2019-05-25T11:53:06.253Z,43.99
2019-05-25T11:54:05.848Z,43.90
2019-05-25T11:55:05.801Z,43.99
2019-05-25T11:56:05.800Z,44.19
2019-05-25T11:57:05.716Z,43.99
2019-05-25T11:58:05.653Z,43.32
2019-05-25T11:59:05.641Z,43.71
2019-05-25T12:00:05.784Z,43.51
2019-05-25T12:01:06.376Z,43.51
2019-05-25T12:02:05.550Z,43.71
2019-05-25T12:03:05.431Z,43.71
2019-05-25T12:04:06.303Z,43.61
2019-05-25T12:05:05.263Z,43.71
2019-05-25T12:06:05.389Z,43.80
2019-05-25T12:07:05.351Z,43.71
2019-05-25T12:08:05.229Z,43.71
2019-05-25T12:09:05.833Z,43.51
2019-05-25T12:10:05.227Z,43.90
2019-05-25T12:11:05.030Z,43.71
2019-05-25T12:12:05.148Z,43.32
2019-05-25T12:13:05.040Z,43.13
2019-05-25T12:14:05.186Z,43.99
2019-05-25T12:15:04.860Z,43.90
2019-05-25T12:16:04.834Z,43.71
2019-05-25T12:17:05.290Z,43.80
2019-05-25T12:18:04.793Z,42.74
2019-05-25T12:19:04.754Z,42.83
2019-05-25T12:20:04.604Z,42.45
2019-05-25T12:21:04.576Z,42.65
2019-05-25T12:22:04.669Z,42.83
2019-05-25T12:23:04.555Z,43.13
2019-05-25T12:24:04.495Z,43.32
2019-05-25T12:25:04.506Z,43.03
2019-05-25T12:26:04.364Z,42.93
2019-05-25T12:27:04.351Z,42.65
2019-05-25T12:28:04.371Z,42.74
2019-05-25T12:29:04.289Z,42.74
2019-05-25T12:30:04.721Z,42.93
2019-05-25T12:31:04.208Z,43.13
2019-05-25T12:32:04.667Z,42.45
2019-05-25T12:33:04.078Z,42.93
2019-05-25T12:34:04.058Z,43.03
2019-05-25T12:35:03.943Z,42.07
2019-05-25T12:36:04.090Z,42.65
2019-05-25T12:37:04.097Z,42.65
2019-05-25T12:38:03.907Z,41.87
2019-05-25T12:39:04.018Z,42.35
2019-05-25T12:40:05.315Z,42.55
2019-05-25T12:41:03.705Z,41.87
2019-05-25T12:42:03.811Z,42.16
2019-05-25T12:43:03.618Z,42.16
2019-05-25T12:44:03.538Z,42.16
2019-05-25T12:45:03.470Z,42.45
2019-05-25T12:46:03.393Z,42.55
2019-05-25T12:47:03.353Z,42.45
2019-05-25T12:48:03.309Z,42.25
2019-05-25T12:49:03.261Z,42.25
2019-05-25T12:50:03.244Z,42.45
2019-05-25T12:51:03.189Z,41.97
2019-05-25T12:52:03.138Z,41.87
2019-05-25T12:53:03.089Z,42.07
2019-05-25T12:54:03.044Z,42.35
2019-05-25T12:55:03.000Z,42.65
2019-05-25T12:56:02.961Z,41.97
2019-05-25T12:57:02.988Z,42.93
2019-05-25T12:58:02.867Z,42.83
2019-05-25T12:59:02.828Z,42.65
2019-05-25T13:00:14.955Z,42.07
2019-05-25T13:01:02.733Z,42.35
2019-05-25T13:02:02.695Z,41.97
2019-05-25T13:03:02.674Z,42.07
2019-05-25T13:04:02.601Z,41.87
2019-05-25T13:05:02.565Z,41.97
2019-05-25T13:06:02.516Z,42.07
2019-05-25T13:07:02.477Z,42.16
2019-05-25T13:08:02.427Z,41.97
2019-05-25T13:09:02.384Z,41.97
2019-05-25T13:10:02.364Z,41.77
2019-05-25T13:11:02.300Z,41.77
2019-05-25T13:12:02.256Z,41.97
2019-05-25T13:13:02.448Z,41.87
2019-05-25T13:14:14.086Z,41.77
2019-05-25T13:15:02.129Z,41.77
2019-05-25T13:16:02.101Z,41.97
2019-05-25T13:17:02.038Z,41.77
2019-05-25T13:18:02.009Z,41.67
2019-05-25T13:19:01.971Z,41.58
2019-05-25T13:20:01.919Z,42.16
2019-05-25T13:21:01.884Z,42.07
2019-05-25T13:22:01.817Z,41.67
2019-05-25T13:23:05.196Z,41.77
2019-05-25T13:24:01.747Z,41.77
2019-05-25T13:25:01.692Z,41.97
2019-05-25T13:26:01.667Z,42.25
2019-05-25T13:27:01.599Z,42.16
2019-05-25T13:28:01.555Z,41.77
2019-05-25T13:29:01.519Z,41.97
2019-05-25T13:30:03.357Z,41.67
2019-05-25T13:31:11.259Z,41.67
2019-05-25T13:32:01.381Z,41.77
2019-05-25T13:33:01.339Z,42.07
2019-05-25T13:34:01.289Z,42.07
2019-05-25T13:35:01.251Z,42.45
2019-05-25T13:36:01.209Z,42.35
2019-05-25T13:37:02.104Z,43.03
2019-05-25T13:38:01.118Z,42.83
2019-05-25T13:39:01.080Z,42.65
2019-05-25T13:40:01.036Z,42.74
2019-05-25T13:41:00.984Z,42.74
2019-05-25T13:42:00.936Z,43.05
2019-05-25T13:43:00.924Z,42.07
2019-05-25T13:44:00.851Z,42.47
2019-05-25T13:45:00.810Z,42.08
2019-05-25T13:46:00.768Z,42.28
2019-05-25T13:47:00.752Z,42.28
2019-05-25T13:48:00.674Z,42.07
2019-05-25T13:49:00.642Z,41.70
2019-05-25T13:50:00.599Z,41.79
2019-05-25T13:51:00.559Z,41.77
2019-05-25T13:52:00.502Z,41.79
2019-05-25T13:53:00.461Z,41.99
2019-05-25T13:54:00.430Z,41.77
2019-05-25T13:55:00.374Z,41.77
2019-05-25T13:56:00.353Z,41.70
2019-05-25T13:57:00.284Z,41.89
2019-05-25T13:58:00.404Z,41.60
2019-05-25T13:59:00.195Z,41.60
2019-05-25T14:00:00.151Z,41.60
2019-05-25T14:01:00.113Z,41.50
2019-05-25T14:02:00.060Z,41.89
2019-05-25T14:03:00.074Z,41.70
2019-05-25T14:03:59.974Z,41.79
2019-05-25T14:04:59.933Z,41.77
2019-05-25T14:05:59.885Z,41.77
2019-05-25T14:06:59.849Z,41.79
2019-05-25T14:07:59.796Z,41.79
2019-05-25T14:08:59.757Z,41.89
2019-05-25T14:09:59.715Z,41.79
2019-05-25T14:10:59.668Z,41.79
2019-05-25T14:11:59.623Z,41.77
2019-05-25T14:12:59.587Z,41.70
2019-05-25T14:13:59.561Z,41.41
2019-05-25T14:14:59.498Z,41.67
2019-05-25T14:16:07.191Z,41.67
2019-05-25T14:16:59.412Z,41.70
2019-05-25T14:17:59.377Z,41.58
2019-05-25T14:18:59.320Z,41.50
2019-05-25T14:19:59.271Z,41.50
2019-05-25T14:20:59.232Z,41.48
2019-05-25T14:21:59.189Z,41.70
2019-05-25T14:22:59.145Z,41.79
2019-05-25T14:23:59.107Z,41.58
2019-05-25T14:24:59.054Z,41.60
2019-05-25T14:25:59.013Z,41.41
2019-05-25T14:26:58.967Z,41.31
2019-05-25T14:27:58.928Z,41.58
2019-05-25T14:28:58.878Z,41.50
2019-05-25T14:29:58.845Z,41.41
2019-05-25T14:30:58.795Z,41.60
2019-05-25T14:31:58.791Z,41.70
2019-05-25T14:32:58.706Z,42.08
2019-05-25T14:33:58.673Z,42.08
2019-05-25T14:34:58.618Z,41.70
2019-05-25T14:35:58.573Z,41.58
2019-05-25T14:36:58.563Z,42.37
2019-05-25T14:37:58.508Z,41.97
2019-05-25T14:38:58.493Z,42.28
2019-05-25T14:39:58.414Z,41.79
2019-05-25T14:40:58.359Z,41.79
2019-05-25T14:41:58.310Z,41.41
2019-05-25T14:42:58.264Z,41.31
2019-05-25T14:43:58.246Z,41.70
2019-05-25T14:44:58.176Z,41.89
2019-05-25T14:45:58.144Z,41.70
2019-05-25T14:46:58.090Z,41.60
2019-05-25T14:47:58.044Z,41.60
2019-05-25T14:48:58.009Z,41.79
2019-05-25T14:49:57.955Z,41.60
2019-05-25T14:50:57.916Z,42.18
2019-05-25T14:51:57.905Z,42.08
2019-05-25T14:52:57.862Z,41.79
2019-05-25T14:53:57.803Z,41.99
2019-05-25T14:54:57.741Z,42.18
2019-05-25T14:55:57.694Z,42.25
2019-05-25T14:56:57.656Z,42.37
2019-05-25T14:57:57.606Z,42.28
2019-05-25T14:58:57.575Z,42.28
2019-05-25T14:59:57.526Z,41.79
2019-05-25T15:00:57.510Z,41.31
2019-05-25T15:02:02.319Z,41.79
2019-05-25T15:02:57.393Z,41.79
2019-05-25T15:03:57.343Z,41.79
2019-05-25T15:04:57.341Z,41.89
2019-05-25T15:05:57.256Z,42.37
2019-05-25T15:06:57.217Z,43.05
2019-05-25T15:07:57.214Z,42.86
2019-05-25T15:08:57.133Z,42.86
2019-05-25T15:09:57.083Z,42.66
2019-05-25T15:10:57.036Z,42.96
2019-05-25T15:11:57.001Z,43.73
2019-05-25T15:12:56.963Z,44.02
2019-05-25T15:13:56.904Z,43.82
2019-05-25T15:14:56.866Z,43.82
2019-05-25T15:15:56.833Z,42.96
2019-05-25T15:16:56.779Z,43.82
2019-05-25T15:17:56.742Z,42.96
2019-05-25T15:18:56.693Z,43.63
2019-05-25T15:19:56.649Z,44.12
2019-05-25T15:20:56.602Z,43.73
2019-05-25T15:21:56.611Z,43.73
2019-05-25T15:22:56.516Z,43.63
2019-05-25T15:23:56.468Z,43.82
2019-05-25T15:24:56.422Z,44.21
2019-05-25T15:25:56.394Z,44.02
2019-05-25T15:26:56.372Z,43.44
2019-05-25T15:27:56.312Z,43.73
2019-05-25T15:28:56.255Z,43.73
2019-05-25T15:29:56.209Z,43.82
2019-05-25T15:30:56.167Z,43.73
2019-05-25T15:31:56.122Z,43.63
2019-05-25T15:32:56.081Z,43.73
2019-05-25T15:33:56.037Z,43.82
2019-05-25T15:34:56.007Z,44.02
2019-05-25T15:35:55.947Z,43.73
2019-05-25T15:36:55.903Z,43.92
2019-05-25T15:37:55.861Z,43.82
2019-05-25T15:38:55.891Z,43.24
2019-05-25T15:39:55.769Z,43.05
2019-05-25T15:40:55.732Z,43.24
2019-05-25T15:41:55.679Z,42.93
2019-05-25T15:42:55.710Z,43.05
2019-05-25T15:43:55.611Z,42.66
2019-05-25T15:44:55.550Z,43.23
2019-05-25T15:45:55.509Z,43.54
2019-05-25T15:46:55.524Z,43.92
2019-05-25T15:47:55.430Z,43.71
2019-05-25T15:48:55.727Z,43.73
2019-05-25T15:49:56.265Z,43.63
2019-05-25T15:50:55.294Z,43.54
2019-05-25T15:51:55.347Z,43.63
2019-05-25T15:52:56.829Z,43.73
2019-05-25T15:53:55.159Z,43.73
2019-05-25T15:54:55.113Z,43.73
2019-05-25T15:55:55.067Z,43.44
2019-05-25T15:56:55.026Z,43.73
2019-05-25T15:57:54.991Z,43.73
2019-05-25T15:58:55.006Z,43.73
2019-05-25T15:59:54.898Z,43.63
2019-05-25T16:00:54.895Z,43.82
2019-05-25T16:01:54.816Z,43.73
2019-05-25T16:02:54.764Z,43.82
2019-05-25T16:03:54.721Z,43.82
2019-05-25T16:04:54.677Z,43.63
2019-05-25T16:05:54.657Z,43.63
2019-05-25T16:06:54.592Z,43.82
2019-05-25T16:07:54.557Z,43.82
2019-05-25T16:08:54.505Z,43.34
2019-05-25T16:09:54.473Z,43.92
2019-05-25T16:10:54.414Z,43.73
2019-05-25T16:11:54.378Z,43.54
2019-05-25T16:12:54.344Z,44.12
2019-05-25T16:13:54.282Z,44.40
2019-05-25T16:14:54.234Z,44.02
2019-05-25T16:15:54.225Z,44.12
2019-05-25T16:16:54.183Z,44.02
2019-05-25T16:17:54.104Z,44.21
2019-05-25T16:18:54.129Z,43.95
2019-05-25T16:19:54.066Z,44.40
2019-05-25T16:20:53.974Z,44.12
2019-05-25T16:21:53.932Z,44.33
2019-05-25T16:22:53.886Z,44.50
2019-05-25T16:23:53.842Z,44.21
2019-05-25T16:24:53.801Z,44.02
2019-05-25T16:25:53.768Z,44.43
2019-05-25T16:26:53.717Z,44.70
2019-05-25T16:27:53.671Z,45.20
2019-05-25T16:28:53.628Z,45.01
2019-05-25T16:29:53.675Z,45.18
2019-05-25T16:30:53.546Z,44.43
2019-05-25T16:31:53.502Z,44.43
2019-05-25T16:33:11.747Z,45.01
2019-05-25T16:33:53.457Z,45.20
2019-05-25T16:34:53.371Z,44.33
2019-05-25T16:35:57.654Z,45.10
2019-05-25T16:36:53.364Z,44.81
2019-05-25T16:37:53.376Z,45.20
2019-05-25T16:38:53.323Z,45.20
2019-05-25T16:39:53.285Z,45.18
2019-05-25T16:40:53.112Z,45.20
2019-05-25T16:41:53.172Z,44.70
2019-05-25T16:42:53.050Z,45.18
2019-05-25T16:43:52.987Z,44.98
2019-05-25T16:44:52.972Z,44.89
2019-05-25T16:45:52.956Z,44.98
2019-05-25T16:46:52.848Z,45.10
2019-05-25T16:47:52.796Z,45.10
2019-05-25T16:48:52.748Z,45.01
2019-05-25T16:49:52.726Z,44.98
2019-05-25T16:50:52.703Z,45.10
2019-05-25T16:51:52.623Z,45.01
2019-05-25T16:52:53.299Z,45.01
2019-05-25T16:53:52.541Z,45.10
2019-05-25T16:54:52.526Z,45.10
2019-05-25T16:55:54.777Z,45.01
2019-05-25T16:56:52.412Z,44.81
2019-05-25T16:57:52.381Z,45.20
2019-05-25T16:58:52.333Z,45.20
2019-05-25T16:59:52.285Z,45.10
2019-05-25T17:00:52.236Z,45.01
2019-05-25T17:01:52.180Z,45.10
2019-05-25T17:02:52.202Z,45.20
2019-05-25T17:03:52.139Z,45.10
2019-05-25T17:04:52.129Z,45.10
2019-05-25T17:05:52.046Z,45.30
2019-05-25T17:06:51.973Z,45.01
2019-05-25T17:07:51.923Z,45.40
2019-05-25T17:08:55.885Z,45.01
2019-05-25T17:09:51.868Z,45.20
2019-05-25T17:10:51.849Z,45.30
2019-05-25T17:11:51.759Z,45.01
2019-05-25T17:12:52.391Z,45.10
2019-05-25T17:13:51.663Z,45.01
2019-05-25T17:14:51.631Z,45.30
2019-05-25T17:15:51.634Z,45.01
2019-05-25T17:16:51.562Z,45.10
2019-05-25T17:17:51.495Z,45.20
2019-05-25T17:18:51.479Z,45.20
2019-05-25T17:19:51.395Z,45.20
2019-05-25T17:20:51.361Z,45.01
2019-05-25T17:21:51.363Z,45.20
2019-05-25T17:22:51.270Z,45.20
2019-05-25T17:23:51.218Z,45.10
2019-05-25T17:24:51.233Z,45.10
2019-05-25T17:25:51.160Z,44.91
2019-05-25T17:26:51.830Z,45.01
2019-05-25T17:27:51.059Z,45.10
2019-05-25T17:28:51.028Z,45.01
2019-05-25T17:29:50.976Z,45.01
2019-05-25T17:30:50.941Z,45.20
2019-05-25T17:31:50.892Z,45.10
2019-05-25T17:32:50.858Z,44.81
2019-05-25T17:33:50.787Z,44.81
2019-05-25T17:34:50.793Z,44.91
2019-05-25T17:35:50.691Z,45.01
2019-05-25T17:36:50.664Z,45.20
2019-05-25T17:37:50.607Z,45.01
2019-05-25T17:38:50.567Z,45.20
2019-05-25T17:39:50.544Z,45.10
2019-05-25T17:40:50.583Z,44.91
2019-05-25T17:41:50.436Z,45.01
2019-05-25T17:42:50.392Z,45.20
2019-05-25T17:43:50.356Z,43.37
2019-05-25T17:44:50.302Z,42.68
2019-05-25T17:45:50.269Z,42.78
2019-05-25T17:46:50.221Z,42.59
2019-05-25T17:47:50.366Z,42.68
2019-05-25T17:48:50.133Z,42.57
2019-05-25T17:49:50.091Z,42.57
2019-05-25T17:50:50.048Z,42.66
2019-05-25T17:51:50.003Z,42.76
2019-05-25T17:52:49.983Z,42.86
2019-05-25T17:53:49.976Z,43.15
2019-05-25T17:54:49.866Z,44.02
2019-05-25T17:55:49.824Z,44.02
2019-05-25T17:56:49.786Z,43.24
2019-05-25T17:57:49.759Z,43.05
2019-05-25T17:58:49.692Z,43.15
2019-05-25T17:59:49.652Z,43.05
2019-05-25T18:00:49.608Z,43.15
2019-05-25T18:01:49.582Z,43.44
2019-05-25T18:02:49.535Z,43.24
2019-05-25T18:04:05.399Z,43.92
2019-05-25T18:04:49.492Z,43.92
2019-05-25T18:05:49.390Z,43.34
2019-05-25T18:06:49.513Z,43.34
2019-05-25T18:07:49.325Z,43.24
2019-05-25T18:08:49.259Z,44.02
2019-05-25T18:09:49.205Z,43.82
2019-05-25T18:10:53.592Z,43.92
2019-05-25T18:11:49.141Z,43.73
2019-05-25T18:12:49.130Z,43.63
2019-05-25T18:13:49.040Z,43.73
2019-05-25T18:14:48.990Z,43.63
2019-05-25T18:15:48.965Z,43.92
2019-05-25T18:16:48.905Z,43.54
2019-05-25T18:17:48.870Z,43.92
2019-05-25T18:18:48.967Z,43.92
2019-05-25T18:19:48.775Z,43.82
2019-05-25T18:20:48.973Z,43.92
2019-05-25T18:21:48.689Z,43.73
2019-05-25T18:22:48.695Z,43.82
2019-05-25T18:23:48.604Z,43.92
2019-05-25T18:24:48.565Z,43.82
2019-05-25T18:25:48.516Z,43.92
2019-05-25T18:26:48.470Z,43.63
2019-05-25T18:27:48.470Z,43.63
2019-05-25T18:28:48.385Z,43.82
2019-05-25T18:29:48.340Z,44.02
2019-05-25T18:30:48.291Z,43.82
2019-05-25T18:31:48.251Z,43.34
2019-05-25T18:32:48.216Z,43.92
2019-05-25T18:33:48.231Z,43.82
2019-05-25T18:34:48.123Z,43.63
2019-05-25T18:35:48.074Z,43.54
2019-05-25T18:36:48.063Z,43.34
2019-05-25T18:37:47.995Z,43.24
2019-05-25T18:38:47.951Z,43.24
2019-05-25T18:39:47.907Z,43.90
2019-05-25T18:40:47.860Z,43.82
2019-05-25T18:41:47.901Z,43.82
2019-05-25T18:42:47.776Z,43.44
2019-05-25T18:43:47.731Z,43.82
2019-05-25T18:44:47.685Z,43.73
2019-05-25T18:45:47.651Z,44.02
2019-05-25T18:46:47.628Z,43.92
2019-05-25T18:47:47.564Z,43.80
2019-05-25T18:48:47.510Z,43.24
2019-05-25T18:49:47.519Z,43.05
2019-05-25T18:50:47.510Z,43.05
2019-05-25T18:51:47.379Z,43.34
2019-05-25T18:52:47.326Z,44.12
2019-05-25T18:53:47.288Z,43.54
2019-05-25T18:54:47.242Z,43.24
2019-05-25T18:55:47.203Z,43.05
2019-05-25T18:56:47.157Z,43.24
2019-05-25T18:57:47.193Z,43.73
2019-05-25T18:58:47.092Z,43.80
2019-05-25T18:59:47.087Z,43.63
2019-05-25T19:00:47.025Z,43.51
2019-05-25T19:01:46.978Z,43.80
2019-05-25T19:02:46.922Z,43.92
2019-05-25T19:03:46.859Z,43.73
2019-05-25T19:04:58.261Z,44.02
2019-05-25T19:05:46.772Z,43.99
2019-05-25T19:06:46.741Z,43.90
2019-05-25T19:07:46.671Z,43.90
2019-05-25T19:08:46.636Z,43.90
2019-05-25T19:09:46.643Z,43.80
2019-05-25T19:10:46.562Z,43.92
2019-05-25T19:11:46.503Z,43.90
2019-05-25T19:12:46.467Z,43.71
2019-05-25T19:13:46.426Z,44.09
2019-05-25T19:14:46.366Z,43.61
2019-05-25T19:15:46.343Z,43.71
2019-05-25T19:16:46.289Z,43.41
2019-05-25T19:17:46.241Z,43.90
2019-05-25T19:18:46.199Z,43.90
2019-05-25T19:19:46.148Z,43.71
2019-05-25T19:20:46.130Z,43.80
2019-05-25T19:21:46.067Z,43.80
2019-05-25T19:22:46.051Z,43.71
2019-05-25T19:23:46.054Z,43.61
2019-05-25T19:24:45.958Z,43.90
2019-05-25T19:25:45.930Z,43.90
2019-05-25T19:26:45.867Z,43.80
2019-05-25T19:27:45.870Z,43.80
2019-05-25T19:28:45.826Z,43.80
2019-05-25T19:29:45.918Z,43.99
2019-05-25T19:30:45.724Z,43.80
2019-05-25T19:31:45.662Z,43.61
2019-05-25T19:32:45.606Z,43.61
2019-05-25T19:33:45.541Z,44.09
2019-05-25T19:34:58.484Z,43.71
2019-05-25T19:35:45.684Z,43.99
2019-05-25T19:36:45.476Z,43.80
2019-05-25T19:37:45.552Z,43.80
2019-05-25T19:38:45.685Z,43.90
2019-05-25T19:39:45.325Z,43.61
2019-05-25T19:40:45.228Z,43.99
2019-05-25T19:41:45.208Z,43.99
2019-05-25T19:42:49.357Z,43.99
2019-05-25T19:43:45.107Z,43.61
2019-05-25T19:44:45.098Z,43.51
2019-05-25T19:45:47.296Z,44.09
2019-05-25T19:46:44.970Z,43.80
2019-05-25T19:47:44.927Z,43.80
2019-05-25T19:48:44.886Z,43.90
2019-05-25T19:49:44.886Z,43.80
2019-05-25T19:50:44.787Z,43.90
2019-05-25T19:51:44.787Z,43.80
2019-05-25T19:52:44.720Z,44.09
2019-05-25T19:53:44.723Z,43.03
2019-05-25T19:54:44.623Z,43.41
2019-05-25T19:55:44.579Z,43.13
2019-05-25T19:56:44.588Z,43.32
2019-05-25T19:57:45.388Z,43.23
2019-05-25T19:58:44.455Z,43.13
2019-05-25T19:59:44.403Z,43.13
2019-05-25T20:00:44.366Z,43.03
2019-05-25T20:01:44.334Z,43.23
2019-05-25T20:02:44.320Z,43.13
2019-05-25T20:03:44.280Z,43.13
2019-05-25T20:04:44.182Z,43.13
2019-05-25T20:05:44.142Z,43.32
2019-05-25T20:06:44.124Z,43.23
2019-05-25T20:07:44.231Z,43.23
2019-05-25T20:08:44.789Z,43.23
2019-05-25T20:09:43.953Z,43.03
2019-05-25T20:10:43.911Z,43.03
2019-05-25T20:11:43.867Z,43.13
2019-05-25T20:12:43.825Z,42.83
2019-05-25T20:13:43.782Z,43.03
2019-05-25T20:14:43.747Z,42.93
2019-05-25T20:15:43.690Z,43.13
2019-05-25T20:16:43.749Z,42.45
2019-05-25T20:17:43.630Z,42.65
2019-05-25T20:18:43.751Z,43.23
2019-05-25T20:19:43.516Z,43.61
2019-05-25T20:20:43.536Z,43.23
2019-05-25T20:21:44.821Z,43.13
2019-05-25T20:22:43.527Z,43.23
2019-05-25T20:23:44.269Z,43.51
2019-05-25T20:24:44.332Z,43.41
2019-05-25T20:25:45.358Z,43.80
2019-05-25T20:26:43.234Z,43.71
2019-05-25T20:27:43.170Z,43.23
2019-05-25T20:28:43.141Z,43.32
2019-05-25T20:29:43.084Z,43.51
2019-05-25T20:30:43.170Z,43.61
2019-05-25T20:31:43.042Z,43.90
2019-05-25T20:32:42.946Z,43.90
2019-05-25T20:33:42.903Z,43.80
2019-05-25T20:34:45.698Z,43.71
2019-05-25T20:35:42.819Z,43.51
2019-05-25T20:36:42.801Z,43.80
2019-05-25T20:37:42.781Z,43.61
2019-05-25T20:38:42.745Z,43.32